sensor_id;sensor_type;location;lat;lon;timestamp;P1;durP1;ratioP1;P2;durP2;ratioP2
69912;SDS011;57198;52.082;5.108;2023-08-17T00:00:32;4.15;;;1.70;;
69912;SDS011;57198;52.082;5.108;2023-08-17T00:03:00;3.13;;;1.52;;
69912;SDS011;57198;52.082;5.108;2023-08-17T00:05:27;3.77;;;1.47;;
69912;SDS011;57198;52.082;5.108;2023-08-17T00:07:54;4.57;;;1.40;;
69912;SDS011;57198;52.082;5.108;2023-08-17T00:10:22;2.92;;;1.25;;
69912;SDS011;57198;52.082;5.108;2023-08-17T00:12:49;4.72;;;1.75;;
69912;SDS011;57198;52.082;5.108;2023-08-17T00:15:16;4.20;;;1.50;;
69912;SDS011;57198;52.082;5.108;2023-08-17T00:17:44;4.43;;;1.50;;
69912;SDS011;57198;52.082;5.108;2023-08-17T00:20:11;4.22;;;1.13;;
69912;SDS011;57198;52.082;5.108;2023-08-17T00:22:39;1.83;;;1.20;;
69912;SDS011;57198;52.082;5.108;2023-08-17T00:25:06;3.38;;;1.20;;
69912;SDS011;57198;52.082;5.108;2023-08-17T00:27:34;3.33;;;1.40;;
69912;SDS011;57198;52.082;5.108;2023-08-17T00:30:01;4.30;;;1.37;;
69912;SDS011;57198;52.082;5.108;2023-08-17T00:32:28;3.10;;;1.13;;
69912;SDS011;57198;52.082;5.108;2023-08-17T00:34:56;3.38;;;1.30;;
69912;SDS011;57198;52.082;5.108;2023-08-17T00:37:23;3.28;;;1.10;;
69912;SDS011;57198;52.082;5.108;2023-08-17T00:39:51;2.38;;;1.48;;
69912;SDS011;57198;52.082;5.108;2023-08-17T00:42:18;3.60;;;1.43;;
69912;SDS011;57198;52.082;5.108;2023-08-17T00:44:46;5.07;;;1.55;;
69912;SDS011;57198;52.082;5.108;2023-08-17T00:47:13;4.82;;;1.27;;
69912;SDS011;57198;52.082;5.108;2023-08-17T00:49:41;4.05;;;1.40;;
69912;SDS011;57198;52.082;5.108;2023-08-17T00:52:08;3.70;;;1.30;;
69912;SDS011;57198;52.082;5.108;2023-08-17T00:54:36;5.40;;;1.67;;
69912;SDS011;57198;52.082;5.108;2023-08-17T00:57:04;3.47;;;1.33;;
69912;SDS011;57198;52.082;5.108;2023-08-17T00:59:33;2.35;;;1.30;;
69912;SDS011;57198;52.082;5.108;2023-08-17T01:02:02;2.75;;;1.40;;
69912;SDS011;57198;52.082;5.108;2023-08-17T01:04:30;3.97;;;1.58;;
69912;SDS011;57198;52.082;5.108;2023-08-17T01:06:58;3.03;;;1.40;;
69912;SDS011;57198;52.082;5.108;2023-08-17T01:09:26;3.65;;;1.27;;
69912;SDS011;57198;52.082;5.108;2023-08-17T01:12:00;4.85;;;1.70;;
69912;SDS011;57198;52.082;5.108;2023-08-17T01:14:31;2.17;;;1.13;;
69912;SDS011;57198;52.082;5.108;2023-08-17T01:17:01;4.35;;;1.48;;
69912;SDS011;57198;52.082;5.108;2023-08-17T01:19:31;4.97;;;1.30;;
69912;SDS011;57198;52.082;5.108;2023-08-17T01:22:03;3.05;;;1.20;;
69912;SDS011;57198;52.082;5.108;2023-08-17T01:24:31;2.90;;;1.20;;
69912;SDS011;57198;52.082;5.108;2023-08-17T01:26:58;4.30;;;1.38;;
69912;SDS011;57198;52.082;5.108;2023-08-17T01:29:26;2.97;;;1.15;;
69912;SDS011;57198;52.082;5.108;2023-08-17T01:34:44;3.60;;;1.10;;
69912;SDS011;57198;52.082;5.108;2023-08-17T01:37:13;5.18;;;1.45;;
69912;SDS011;57198;52.082;5.108;2023-08-17T01:39:43;2.40;;;1.20;;
69912;SDS011;57198;52.082;5.108;2023-08-17T01:42:12;5.63;;;1.52;;
69912;SDS011;57198;52.082;5.108;2023-08-17T01:44:39;2.37;;;1.00;;
69912;SDS011;57198;52.082;5.108;2023-08-17T01:47:07;2.05;;;1.15;;
69912;SDS011;57198;52.082;5.108;2023-08-17T01:49:34;5.40;;;1.90;;
69912;SDS011;57198;52.082;5.108;2023-08-17T01:52:01;3.47;;;1.48;;
69912;SDS011;57198;52.082;5.108;2023-08-17T01:54:29;2.83;;;1.30;;
69912;SDS011;57198;52.082;5.108;2023-08-17T01:56:56;4.37;;;1.37;;
69912;SDS011;57198;52.082;5.108;2023-08-17T01:59:24;3.03;;;1.30;;
69912;SDS011;57198;52.082;5.108;2023-08-17T02:01:51;3.63;;;1.40;;
69912;SDS011;57198;52.082;5.108;2023-08-17T02:04:18;4.30;;;1.45;;
69912;SDS011;57198;52.082;5.108;2023-08-17T02:06:46;6.15;;;1.70;;
69912;SDS011;57198;52.082;5.108;2023-08-17T02:09:13;4.97;;;1.70;;
69912;SDS011;57198;52.082;5.108;2023-08-17T02:11:40;3.50;;;1.60;;
69912;SDS011;57198;52.082;5.108;2023-08-17T02:14:08;3.00;;;1.52;;
69912;SDS011;57198;52.082;5.108;2023-08-17T02:16:35;3.70;;;1.50;;
69912;SDS011;57198;52.082;5.108;2023-08-17T02:19:03;3.80;;;1.65;;
69912;SDS011;57198;52.082;5.108;2023-08-17T02:21:31;4.33;;;1.53;;
69912;SDS011;57198;52.082;5.108;2023-08-17T02:24:00;3.40;;;1.30;;
69912;SDS011;57198;52.082;5.108;2023-08-17T02:26:27;5.05;;;1.90;;
69912;SDS011;57198;52.082;5.108;2023-08-17T02:28:54;4.50;;;1.90;;
69912;SDS011;57198;52.082;5.108;2023-08-17T02:31:23;3.70;;;1.30;;
69912;SDS011;57198;52.082;5.108;2023-08-17T02:33:50;3.60;;;1.60;;
69912;SDS011;57198;52.082;5.108;2023-08-17T02:36:18;3.55;;;1.48;;
69912;SDS011;57198;52.082;5.108;2023-08-17T02:38:45;2.88;;;1.35;;
69912;SDS011;57198;52.082;5.108;2023-08-17T02:41:12;3.20;;;1.77;;
69912;SDS011;57198;52.082;5.108;2023-08-17T02:43:40;3.22;;;1.75;;
69912;SDS011;57198;52.082;5.108;2023-08-17T02:46:07;5.90;;;1.60;;
69912;SDS011;57198;52.082;5.108;2023-08-17T02:48:36;6.45;;;1.95;;
69912;SDS011;57198;52.082;5.108;2023-08-17T02:51:03;5.25;;;1.63;;
69912;SDS011;57198;52.082;5.108;2023-08-17T02:53:31;4.28;;;1.60;;
69912;SDS011;57198;52.082;5.108;2023-08-17T02:55:58;2.85;;;1.60;;
69912;SDS011;57198;52.082;5.108;2023-08-17T02:58:26;4.70;;;1.47;;
69912;SDS011;57198;52.082;5.108;2023-08-17T03:00:55;6.00;;;1.73;;
69912;SDS011;57198;52.082;5.108;2023-08-17T03:03:22;3.88;;;1.60;;
69912;SDS011;57198;52.082;5.108;2023-08-17T03:05:50;6.25;;;1.67;;
69912;SDS011;57198;52.082;5.108;2023-08-17T03:08:17;4.43;;;1.65;;
69912;SDS011;57198;52.082;5.108;2023-08-17T03:10:45;4.03;;;1.40;;
69912;SDS011;57198;52.082;5.108;2023-08-17T03:13:12;4.38;;;2.00;;
69912;SDS011;57198;52.082;5.108;2023-08-17T03:15:40;5.05;;;1.75;;
69912;SDS011;57198;52.082;5.108;2023-08-17T03:18:08;2.63;;;1.23;;
69912;SDS011;57198;52.082;5.108;2023-08-17T03:20:37;1.70;;;1.48;;
69912;SDS011;57198;52.082;5.108;2023-08-17T03:23:04;4.37;;;1.73;;
69912;SDS011;57198;52.082;5.108;2023-08-17T03:25:34;2.85;;;1.63;;
69912;SDS011;57198;52.082;5.108;2023-08-17T03:28:01;3.92;;;1.52;;
69912;SDS011;57198;52.082;5.108;2023-08-17T03:30:29;5.82;;;1.73;;
69912;SDS011;57198;52.082;5.108;2023-08-17T03:32:56;4.80;;;1.40;;
69912;SDS011;57198;52.082;5.108;2023-08-17T03:35:24;5.20;;;1.50;;
69912;SDS011;57198;52.082;5.108;2023-08-17T03:37:52;3.78;;;1.80;;
69912;SDS011;57198;52.082;5.108;2023-08-17T03:40:20;5.45;;;1.63;;
69912;SDS011;57198;52.082;5.108;2023-08-17T03:42:47;4.90;;;1.77;;
69912;SDS011;57198;52.082;5.108;2023-08-17T03:45:15;3.60;;;1.73;;
69912;SDS011;57198;52.082;5.108;2023-08-17T03:47:43;2.97;;;1.30;;
69912;SDS011;57198;52.082;5.108;2023-08-17T03:50:10;4.22;;;1.27;;
69912;SDS011;57198;52.082;5.108;2023-08-17T03:52:37;2.97;;;1.20;;
69912;SDS011;57198;52.082;5.108;2023-08-17T03:55:05;2.80;;;1.48;;
69912;SDS011;57198;52.082;5.108;2023-08-17T03:57:33;4.25;;;1.58;;
69912;SDS011;57198;52.082;5.108;2023-08-17T04:00:05;3.23;;;1.47;;
69912;SDS011;57198;52.082;5.108;2023-08-17T04:02:38;3.33;;;1.60;;
69912;SDS011;57198;52.082;5.108;2023-08-17T04:05:08;2.90;;;1.52;;
69912;SDS011;57198;52.082;5.108;2023-08-17T04:07:35;4.80;;;1.23;;
69912;SDS011;57198;52.082;5.108;2023-08-17T04:10:04;4.85;;;2.00;;
69912;SDS011;57198;52.082;5.108;2023-08-17T04:12:32;3.00;;;2.07;;
69912;SDS011;57198;52.082;5.108;2023-08-17T04:14:59;4.00;;;1.60;;
69912;SDS011;57198;52.082;5.108;2023-08-17T04:17:27;5.88;;;1.63;;
69912;SDS011;57198;52.082;5.108;2023-08-17T04:19:55;4.25;;;1.55;;
69912;SDS011;57198;52.082;5.108;2023-08-17T04:22:22;7.55;;;1.98;;
69912;SDS011;57198;52.082;5.108;2023-08-17T04:24:49;4.63;;;1.60;;
69912;SDS011;57198;52.082;5.108;2023-08-17T04:27:17;3.92;;;1.77;;
69912;SDS011;57198;52.082;5.108;2023-08-17T04:29:45;6.10;;;1.50;;
69912;SDS011;57198;52.082;5.108;2023-08-17T04:32:16;3.85;;;1.27;;
69912;SDS011;57198;52.082;5.108;2023-08-17T04:34:44;5.00;;;1.30;;
69912;SDS011;57198;52.082;5.108;2023-08-17T04:37:17;5.37;;;1.60;;
69912;SDS011;57198;52.082;5.108;2023-08-17T04:39:44;5.80;;;1.52;;
69912;SDS011;57198;52.082;5.108;2023-08-17T04:42:18;3.78;;;1.60;;
69912;SDS011;57198;52.082;5.108;2023-08-17T04:44:46;3.47;;;1.58;;
69912;SDS011;57198;52.082;5.108;2023-08-17T04:47:13;3.35;;;1.30;;
69912;SDS011;57198;52.082;5.108;2023-08-17T04:49:42;4.00;;;1.93;;
69912;SDS011;57198;52.082;5.108;2023-08-17T04:52:09;6.20;;;1.65;;
69912;SDS011;57198;52.082;5.108;2023-08-17T04:54:36;6.20;;;1.52;;
69912;SDS011;57198;52.082;5.108;2023-08-17T04:57:04;3.95;;;1.58;;
69912;SDS011;57198;52.082;5.108;2023-08-17T04:59:32;2.83;;;1.63;;
69912;SDS011;57198;52.082;5.108;2023-08-17T05:01:59;2.80;;;1.50;;
69912;SDS011;57198;52.082;5.108;2023-08-17T05:04:27;2.13;;;1.48;;
69912;SDS011;57198;52.082;5.108;2023-08-17T05:06:55;4.70;;;1.38;;
69912;SDS011;57198;52.082;5.108;2023-08-17T05:09:22;4.03;;;1.73;;
69912;SDS011;57198;52.082;5.108;2023-08-17T05:11:51;4.13;;;1.80;;
69912;SDS011;57198;52.082;5.108;2023-08-17T05:14:18;7.23;;;2.43;;
69912;SDS011;57198;52.082;5.108;2023-08-17T05:16:46;8.77;;;1.73;;
69912;SDS011;57198;52.082;5.108;2023-08-17T05:19:13;3.97;;;1.63;;
69912;SDS011;57198;52.082;5.108;2023-08-17T05:21:40;4.43;;;1.30;;
69912;SDS011;57198;52.082;5.108;2023-08-17T05:24:08;6.10;;;1.63;;
69912;SDS011;57198;52.082;5.108;2023-08-17T05:26:35;5.57;;;1.50;;
69912;SDS011;57198;52.082;5.108;2023-08-17T05:29:02;2.75;;;1.20;;
69912;SDS011;57198;52.082;5.108;2023-08-17T05:31:30;3.85;;;1.52;;
69912;SDS011;57198;52.082;5.108;2023-08-17T05:33:57;3.08;;;1.63;;
69912;SDS011;57198;52.082;5.108;2023-08-17T05:36:25;3.40;;;1.50;;
69912;SDS011;57198;52.082;5.108;2023-08-17T05:38:52;4.93;;;1.53;;
69912;SDS011;57198;52.082;5.108;2023-08-17T05:41:20;3.22;;;1.42;;
69912;SDS011;57198;52.082;5.108;2023-08-17T05:43:48;2.75;;;1.75;;
69912;SDS011;57198;52.082;5.108;2023-08-17T05:46:15;5.78;;;1.77;;
69912;SDS011;57198;52.082;5.108;2023-08-17T05:48:42;3.60;;;1.00;;
69912;SDS011;57198;52.082;5.108;2023-08-17T05:51:10;5.87;;;1.50;;
69912;SDS011;57198;52.082;5.108;2023-08-17T05:53:37;3.42;;;1.45;;
69912;SDS011;57198;52.082;5.108;2023-08-17T05:56:04;3.40;;;1.20;;
69912;SDS011;57198;52.082;5.108;2023-08-17T05:58:32;3.90;;;1.70;;
69912;SDS011;57198;52.082;5.108;2023-08-17T06:01:06;5.40;;;1.50;;
69912;SDS011;57198;52.082;5.108;2023-08-17T06:03:34;11.23;;;5.50;;
69912;SDS011;57198;52.082;5.108;2023-08-17T06:06:02;5.00;;;2.40;;
69912;SDS011;57198;52.082;5.108;2023-08-17T06:08:30;2.58;;;1.85;;
69912;SDS011;57198;52.082;5.108;2023-08-17T06:10:57;5.65;;;2.03;;
69912;SDS011;57198;52.082;5.108;2023-08-17T06:13:24;3.70;;;1.65;;
69912;SDS011;57198;52.082;5.108;2023-08-17T06:15:52;4.77;;;1.93;;
69912;SDS011;57198;52.082;5.108;2023-08-17T06:18:22;4.13;;;1.73;;
69912;SDS011;57198;52.082;5.108;2023-08-17T06:20:49;3.72;;;1.40;;
69912;SDS011;57198;52.082;5.108;2023-08-17T06:23:20;4.57;;;1.65;;
69912;SDS011;57198;52.082;5.108;2023-08-17T06:25:47;5.53;;;1.65;;
69912;SDS011;57198;52.082;5.108;2023-08-17T06:28:14;4.53;;;1.30;;
69912;SDS011;57198;52.082;5.108;2023-08-17T06:30:42;4.15;;;1.67;;
69912;SDS011;57198;52.082;5.108;2023-08-17T06:33:10;2.30;;;1.30;;
69912;SDS011;57198;52.082;5.108;2023-08-17T06:35:37;5.82;;;1.48;;
69912;SDS011;57198;52.082;5.108;2023-08-17T06:38:05;3.65;;;1.50;;
69912;SDS011;57198;52.082;5.108;2023-08-17T06:40:32;4.67;;;2.00;;
69912;SDS011;57198;52.082;5.108;2023-08-17T06:43:00;7.65;;;1.83;;
69912;SDS011;57198;52.082;5.108;2023-08-17T06:45:27;5.45;;;1.70;;
69912;SDS011;57198;52.082;5.108;2023-08-17T06:47:54;4.78;;;1.98;;
69912;SDS011;57198;52.082;5.108;2023-08-17T06:50:22;4.03;;;1.70;;
69912;SDS011;57198;52.082;5.108;2023-08-17T06:52:49;3.93;;;1.90;;
69912;SDS011;57198;52.082;5.108;2023-08-17T06:55:16;6.90;;;2.00;;
69912;SDS011;57198;52.082;5.108;2023-08-17T06:57:44;3.95;;;1.90;;
69912;SDS011;57198;52.082;5.108;2023-08-17T07:00:12;4.90;;;1.90;;
69912;SDS011;57198;52.082;5.108;2023-08-17T07:02:39;2.70;;;1.70;;
69912;SDS011;57198;52.082;5.108;2023-08-17T07:05:19;3.90;;;1.70;;
69912;SDS011;57198;52.082;5.108;2023-08-17T07:07:47;6.50;;;1.70;;
69912;SDS011;57198;52.082;5.108;2023-08-17T07:10:14;3.83;;;1.50;;
69912;SDS011;57198;52.082;5.108;2023-08-17T07:12:42;6.57;;;1.85;;
69912;SDS011;57198;52.082;5.108;2023-08-17T07:15:09;3.75;;;1.83;;
69912;SDS011;57198;52.082;5.108;2023-08-17T07:17:36;6.83;;;1.80;;
69912;SDS011;57198;52.082;5.108;2023-08-17T07:20:04;4.82;;;2.35;;
69912;SDS011;57198;52.082;5.108;2023-08-17T07:22:42;3.25;;;1.65;;
69912;SDS011;57198;52.082;5.108;2023-08-17T07:25:10;5.07;;;2.13;;
69912;SDS011;57198;52.082;5.108;2023-08-17T07:27:37;5.25;;;2.13;;
69912;SDS011;57198;52.082;5.108;2023-08-17T07:30:05;3.80;;;1.97;;
69912;SDS011;57198;52.082;5.108;2023-08-17T07:32:33;7.70;;;1.77;;
69912;SDS011;57198;52.082;5.108;2023-08-17T07:35:01;3.63;;;2.00;;
69912;SDS011;57198;52.082;5.108;2023-08-17T07:37:28;5.28;;;1.60;;
69912;SDS011;57198;52.082;5.108;2023-08-17T07:40:00;5.88;;;1.90;;
69912;SDS011;57198;52.082;5.108;2023-08-17T07:42:30;3.07;;;1.60;;
69912;SDS011;57198;52.082;5.108;2023-08-17T07:44:58;4.30;;;1.50;;
69912;SDS011;57198;52.082;5.108;2023-08-17T07:47:25;4.20;;;1.60;;
69912;SDS011;57198;52.082;5.108;2023-08-17T07:49:53;2.83;;;1.73;;
69912;SDS011;57198;52.082;5.108;2023-08-17T07:52:21;5.13;;;2.20;;
69912;SDS011;57198;52.082;5.108;2023-08-17T07:54:48;3.83;;;2.00;;
69912;SDS011;57198;52.082;5.108;2023-08-17T07:57:15;5.43;;;2.03;;
69912;SDS011;57198;52.082;5.108;2023-08-17T07:59:43;5.78;;;1.60;;
69912;SDS011;57198;52.082;5.108;2023-08-17T08:02:10;5.30;;;1.83;;
69912;SDS011;57198;52.082;5.108;2023-08-17T08:04:38;3.75;;;1.90;;
69912;SDS011;57198;52.082;5.108;2023-08-17T08:07:05;6.57;;;2.00;;
69912;SDS011;57198;52.082;5.108;2023-08-17T08:09:32;3.75;;;1.40;;
69912;SDS011;57198;52.082;5.108;2023-08-17T08:12:00;4.80;;;1.60;;
69912;SDS011;57198;52.082;5.108;2023-08-17T08:14:27;3.75;;;1.73;;
69912;SDS011;57198;52.082;5.108;2023-08-17T08:16:55;3.40;;;1.40;;
69912;SDS011;57198;52.082;5.108;2023-08-17T08:19:23;5.67;;;1.47;;
69912;SDS011;57198;52.082;5.108;2023-08-17T08:21:50;5.32;;;1.25;;
69912;SDS011;57198;52.082;5.108;2023-08-17T08:24:17;7.25;;;1.80;;
69912;SDS011;57198;52.082;5.108;2023-08-17T08:27:02;3.42;;;1.67;;
69912;SDS011;57198;52.082;5.108;2023-08-17T08:29:29;3.83;;;1.50;;
69912;SDS011;57198;52.082;5.108;2023-08-17T08:31:57;4.23;;;1.70;;
69912;SDS011;57198;52.082;5.108;2023-08-17T08:34:26;5.60;;;1.15;;
69912;SDS011;57198;52.082;5.108;2023-08-17T08:36:53;4.03;;;1.20;;
69912;SDS011;57198;52.082;5.108;2023-08-17T08:39:21;4.13;;;1.58;;
69912;SDS011;57198;52.082;5.108;2023-08-17T08:41:49;2.85;;;1.00;;
69912;SDS011;57198;52.082;5.108;2023-08-17T08:44:16;4.57;;;1.30;;
69912;SDS011;57198;52.082;5.108;2023-08-17T08:46:44;5.53;;;1.40;;
69912;SDS011;57198;52.082;5.108;2023-08-17T08:49:12;4.43;;;1.45;;
69912;SDS011;57198;52.082;5.108;2023-08-17T08:51:41;4.20;;;1.40;;
69912;SDS011;57198;52.082;5.108;2023-08-17T08:54:11;4.68;;;1.33;;
69912;SDS011;57198;52.082;5.108;2023-08-17T08:56:41;6.77;;;1.43;;
69912;SDS011;57198;52.082;5.108;2023-08-17T08:59:13;4.50;;;1.50;;
69912;SDS011;57198;52.082;5.108;2023-08-17T09:01:41;4.93;;;1.50;;
69912;SDS011;57198;52.082;5.108;2023-08-17T09:04:09;3.83;;;1.30;;
69912;SDS011;57198;52.082;5.108;2023-08-17T09:06:36;3.53;;;1.48;;
69912;SDS011;57198;52.082;5.108;2023-08-17T09:09:05;6.93;;;1.60;;
69912;SDS011;57198;52.082;5.108;2023-08-17T09:11:33;4.15;;;1.30;;
69912;SDS011;57198;52.082;5.108;2023-08-17T09:14:00;2.92;;;1.17;;
69912;SDS011;57198;52.082;5.108;2023-08-17T09:16:27;5.90;;;1.15;;
69912;SDS011;57198;52.082;5.108;2023-08-17T09:18:55;4.55;;;1.10;;
69912;SDS011;57198;52.082;5.108;2023-08-17T09:21:23;2.83;;;1.20;;
69912;SDS011;57198;52.082;5.108;2023-08-17T09:23:55;2.85;;;1.15;;
69912;SDS011;57198;52.082;5.108;2023-08-17T09:26:25;3.05;;;1.52;;
69912;SDS011;57198;52.082;5.108;2023-08-17T09:28:56;4.95;;;1.52;;
69912;SDS011;57198;52.082;5.108;2023-08-17T09:31:25;4.15;;;1.52;;
69912;SDS011;57198;52.082;5.108;2023-08-17T09:33:53;6.57;;;1.47;;
69912;SDS011;57198;52.082;5.108;2023-08-17T09:36:21;5.80;;;1.30;;
69912;SDS011;57198;52.082;5.108;2023-08-17T09:38:48;5.45;;;0.88;;
69912;SDS011;57198;52.082;5.108;2023-08-17T09:41:19;3.70;;;1.55;;
69912;SDS011;57198;52.082;5.108;2023-08-17T09:43:54;3.30;;;1.25;;
69912;SDS011;57198;52.082;5.108;2023-08-17T09:46:21;7.53;;;1.47;;
69912;SDS011;57198;52.082;5.108;2023-08-17T09:48:50;6.55;;;1.10;;
69912;SDS011;57198;52.082;5.108;2023-08-17T09:51:17;5.90;;;1.60;;
69912;SDS011;57198;52.082;5.108;2023-08-17T09:53:51;4.50;;;1.45;;
69912;SDS011;57198;52.082;5.108;2023-08-17T09:56:25;7.60;;;1.67;;
69912;SDS011;57198;52.082;5.108;2023-08-17T09:58:54;5.93;;;1.90;;
69912;SDS011;57198;52.082;5.108;2023-08-17T10:01:22;4.88;;;1.50;;
69912;SDS011;57198;52.082;5.108;2023-08-17T10:03:50;4.32;;;1.38;;
69912;SDS011;57198;52.082;5.108;2023-08-17T10:06:20;5.63;;;1.80;;
69912;SDS011;57198;52.082;5.108;2023-08-17T10:08:53;4.70;;;1.42;;
69912;SDS011;57198;52.082;5.108;2023-08-17T10:11:23;3.97;;;1.50;;
69912;SDS011;57198;52.082;5.108;2023-08-17T10:13:51;2.80;;;1.20;;
69912;SDS011;57198;52.082;5.108;2023-08-17T10:16:23;4.45;;;1.10;;
69912;SDS011;57198;52.082;5.108;2023-08-17T10:19:18;5.20;;;1.27;;
69912;SDS011;57198;52.082;5.108;2023-08-17T10:22:02;6.15;;;1.45;;
69912;SDS011;57198;52.082;5.108;2023-08-17T10:24:31;5.93;;;1.57;;
69912;SDS011;57198;52.082;5.108;2023-08-17T10:27:01;3.63;;;2.05;;
69912;SDS011;57198;52.082;5.108;2023-08-17T10:29:29;5.15;;;1.60;;
69912;SDS011;57198;52.082;5.108;2023-08-17T10:31:56;5.40;;;1.35;;
69912;SDS011;57198;52.082;5.108;2023-08-17T10:34:24;5.35;;;1.80;;
69912;SDS011;57198;52.082;5.108;2023-08-17T10:36:52;3.80;;;1.30;;
69912;SDS011;57198;52.082;5.108;2023-08-17T10:41:54;5.90;;;1.20;;
69912;SDS011;57198;52.082;5.108;2023-08-17T10:47:49;3.47;;;1.50;;
69912;SDS011;57198;52.082;5.108;2023-08-17T10:50:05;4.60;;;1.57;;
69912;SDS011;57198;52.082;5.108;2023-08-17T10:52:34;5.10;;;1.50;;
69912;SDS011;57198;52.082;5.108;2023-08-17T10:55:02;4.85;;;1.60;;
69912;SDS011;57198;52.082;5.108;2023-08-17T11:03:07;3.63;;;1.90;;
69912;SDS011;57198;52.082;5.108;2023-08-17T11:05:36;4.55;;;1.60;;
69912;SDS011;57198;52.082;5.108;2023-08-17T11:08:04;5.10;;;2.15;;
69912;SDS011;57198;52.082;5.108;2023-08-17T11:10:32;2.65;;;1.88;;
69912;SDS011;57198;52.082;5.108;2023-08-17T11:12:59;6.05;;;1.85;;
69912;SDS011;57198;52.082;5.108;2023-08-17T11:15:38;5.27;;;1.83;;
69912;SDS011;57198;52.082;5.108;2023-08-17T11:18:06;3.20;;;1.80;;
69912;SDS011;57198;52.082;5.108;2023-08-17T11:20:36;4.90;;;1.70;;
69912;SDS011;57198;52.082;5.108;2023-08-17T11:23:08;5.70;;;2.20;;
69912;SDS011;57198;52.082;5.108;2023-08-17T11:25:36;6.93;;;2.13;;
69912;SDS011;57198;52.082;5.108;2023-08-17T11:28:05;4.27;;;2.13;;
69912;SDS011;57198;52.082;5.108;2023-08-17T11:30:33;5.35;;;2.20;;
69912;SDS011;57198;52.082;5.108;2023-08-17T11:33:02;9.32;;;2.65;;
69912;SDS011;57198;52.082;5.108;2023-08-17T11:35:29;5.68;;;2.30;;
69912;SDS011;57198;52.082;5.108;2023-08-17T11:37:57;3.92;;;2.10;;
69912;SDS011;57198;52.082;5.108;2023-08-17T11:40:24;3.53;;;2.13;;
69912;SDS011;57198;52.082;5.108;2023-08-17T11:42:52;5.65;;;2.50;;
69912;SDS011;57198;52.082;5.108;2023-08-17T11:45:19;6.70;;;2.08;;
69912;SDS011;57198;52.082;5.108;2023-08-17T11:47:53;3.80;;;2.40;;
69912;SDS011;57198;52.082;5.108;2023-08-17T11:50:20;6.18;;;2.88;;
69912;SDS011;57198;52.082;5.108;2023-08-17T11:52:48;6.40;;;2.70;;
69912;SDS011;57198;52.082;5.108;2023-08-17T11:55:16;6.22;;;2.15;;
69912;SDS011;57198;52.082;5.108;2023-08-17T11:57:47;6.90;;;2.55;;
69912;SDS011;57198;52.082;5.108;2023-08-17T12:00:18;4.18;;;2.25;;
69912;SDS011;57198;52.082;5.108;2023-08-17T12:02:49;8.75;;;2.55;;
69912;SDS011;57198;52.082;5.108;2023-08-17T12:05:23;7.63;;;2.10;;
69912;SDS011;57198;52.082;5.108;2023-08-17T12:07:53;8.15;;;2.60;;
69912;SDS011;57198;52.082;5.108;2023-08-17T12:10:21;8.60;;;2.58;;
69912;SDS011;57198;52.082;5.108;2023-08-17T12:12:49;5.05;;;2.42;;
69912;SDS011;57198;52.082;5.108;2023-08-17T12:15:17;5.35;;;2.33;;
69912;SDS011;57198;52.082;5.108;2023-08-17T12:17:48;7.23;;;2.77;;
69912;SDS011;57198;52.082;5.108;2023-08-17T12:20:18;5.78;;;2.53;;
69912;SDS011;57198;52.082;5.108;2023-08-17T12:22:47;6.45;;;2.50;;
69912;SDS011;57198;52.082;5.108;2023-08-17T12:25:14;7.65;;;2.13;;
69912;SDS011;57198;52.082;5.108;2023-08-17T12:27:42;7.35;;;2.47;;
69912;SDS011;57198;52.082;5.108;2023-08-17T12:30:14;5.67;;;2.33;;
69912;SDS011;57198;52.082;5.108;2023-08-17T12:32:41;4.93;;;2.60;;
69912;SDS011;57198;52.082;5.108;2023-08-17T12:35:09;4.95;;;2.70;;
69912;SDS011;57198;52.082;5.108;2023-08-17T12:37:36;6.13;;;2.50;;
69912;SDS011;57198;52.082;5.108;2023-08-17T12:40:03;5.32;;;2.20;;
69912;SDS011;57198;52.082;5.108;2023-08-17T12:42:31;6.03;;;2.80;;
69912;SDS011;57198;52.082;5.108;2023-08-17T12:44:59;6.15;;;2.55;;
69912;SDS011;57198;52.082;5.108;2023-08-17T12:47:30;8.25;;;2.53;;
69912;SDS011;57198;52.082;5.108;2023-08-17T12:50:00;8.63;;;3.05;;
69912;SDS011;57198;52.082;5.108;2023-08-17T12:52:30;5.47;;;2.50;;
69912;SDS011;57198;52.082;5.108;2023-08-17T12:54:57;5.67;;;2.80;;
69912;SDS011;57198;52.082;5.108;2023-08-17T12:57:25;7.10;;;2.78;;
69912;SDS011;57198;52.082;5.108;2023-08-17T12:59:53;6.28;;;2.90;;
69912;SDS011;57198;52.082;5.108;2023-08-17T13:02:21;6.15;;;2.50;;
69912;SDS011;57198;52.082;5.108;2023-08-17T13:04:48;6.38;;;2.63;;
69912;SDS011;57198;52.082;5.108;2023-08-17T13:07:15;6.53;;;2.80;;
69912;SDS011;57198;52.082;5.108;2023-08-17T13:09:43;6.05;;;2.78;;
69912;SDS011;57198;52.082;5.108;2023-08-17T13:12:12;5.82;;;2.70;;
69912;SDS011;57198;52.082;5.108;2023-08-17T13:14:40;4.65;;;2.55;;
69912;SDS011;57198;52.082;5.108;2023-08-17T13:17:07;5.72;;;2.50;;
69912;SDS011;57198;52.082;5.108;2023-08-17T13:19:34;6.80;;;2.50;;
69912;SDS011;57198;52.082;5.108;2023-08-17T13:22:02;4.88;;;2.88;;
69912;SDS011;57198;52.082;5.108;2023-08-17T13:24:29;10.13;;;3.42;;
69912;SDS011;57198;52.082;5.108;2023-08-17T13:26:57;5.22;;;2.70;;
69912;SDS011;57198;52.082;5.108;2023-08-17T13:29:25;9.40;;;2.83;;
69912;SDS011;57198;52.082;5.108;2023-08-17T13:31:52;4.93;;;2.20;;
69912;SDS011;57198;52.082;5.108;2023-08-17T13:34:19;4.60;;;2.25;;
69912;SDS011;57198;52.082;5.108;2023-08-17T13:36:47;6.43;;;2.28;;
69912;SDS011;57198;52.082;5.108;2023-08-17T13:39:14;4.25;;;2.22;;
69912;SDS011;57198;52.082;5.108;2023-08-17T13:41:42;6.28;;;2.67;;
69912;SDS011;57198;52.082;5.108;2023-08-17T13:44:09;3.73;;;2.20;;
69912;SDS011;57198;52.082;5.108;2023-08-17T13:46:36;6.28;;;2.83;;
69912;SDS011;57198;52.082;5.108;2023-08-17T13:49:04;4.03;;;2.42;;
69912;SDS011;57198;52.082;5.108;2023-08-17T13:51:31;6.18;;;2.20;;
69912;SDS011;57198;52.082;5.108;2023-08-17T13:53:59;5.03;;;2.00;;
69912;SDS011;57198;52.082;5.108;2023-08-17T13:56:26;4.17;;;2.07;;
69912;SDS011;57198;52.082;5.108;2023-08-17T13:58:55;5.43;;;2.45;;
69912;SDS011;57198;52.082;5.108;2023-08-17T14:01:22;4.18;;;2.28;;
69912;SDS011;57198;52.082;5.108;2023-08-17T14:03:50;4.82;;;2.47;;
69912;SDS011;57198;52.082;5.108;2023-08-17T14:06:17;4.95;;;3.00;;
69912;SDS011;57198;52.082;5.108;2023-08-17T14:08:44;12.20;;;6.33;;
69912;SDS011;57198;52.082;5.108;2023-08-17T14:11:12;6.43;;;3.15;;
69912;SDS011;57198;52.082;5.108;2023-08-17T14:13:39;5.43;;;2.40;;
69912;SDS011;57198;52.082;5.108;2023-08-17T14:16:06;6.05;;;2.78;;
69912;SDS011;57198;52.082;5.108;2023-08-17T14:18:34;4.18;;;2.60;;
69912;SDS011;57198;52.082;5.108;2023-08-17T14:21:01;6.77;;;2.40;;
69912;SDS011;57198;52.082;5.108;2023-08-17T14:23:29;5.78;;;2.17;;
69912;SDS011;57198;52.082;5.108;2023-08-17T14:25:56;3.20;;;2.03;;
69912;SDS011;57198;52.082;5.108;2023-08-17T14:28:23;7.43;;;2.40;;
69912;SDS011;57198;52.082;5.108;2023-08-17T14:30:52;5.82;;;2.75;;
69912;SDS011;57198;52.082;5.108;2023-08-17T14:33:20;4.47;;;2.10;;
69912;SDS011;57198;52.082;5.108;2023-08-17T14:35:47;5.55;;;2.83;;
69912;SDS011;57198;52.082;5.108;2023-08-17T14:38:15;4.80;;;2.53;;
69912;SDS011;57198;52.082;5.108;2023-08-17T14:40:43;3.75;;;2.20;;
69912;SDS011;57198;52.082;5.108;2023-08-17T14:43:11;3.90;;;2.20;;
69912;SDS011;57198;52.082;5.108;2023-08-17T14:45:40;8.73;;;2.40;;
69912;SDS011;57198;52.082;5.108;2023-08-17T14:48:07;4.60;;;2.42;;
69912;SDS011;57198;52.082;5.108;2023-08-17T14:50:35;3.08;;;2.17;;
69912;SDS011;57198;52.082;5.108;2023-08-17T14:53:03;5.55;;;3.97;;
69912;SDS011;57198;52.082;5.108;2023-08-17T14:55:34;4.10;;;2.20;;
69912;SDS011;57198;52.082;5.108;2023-08-17T14:58:01;5.70;;;2.60;;
69912;SDS011;57198;52.082;5.108;2023-08-17T15:00:30;2.42;;;2.17;;
69912;SDS011;57198;52.082;5.108;2023-08-17T15:02:59;3.25;;;2.17;;
69912;SDS011;57198;52.082;5.108;2023-08-17T15:05:27;2.40;;;2.20;;
69912;SDS011;57198;52.082;5.108;2023-08-17T15:07:55;5.63;;;2.42;;